Time;durP1;ratioP1;P1;durP2;ratioP2;P2;SDS_P1;SDS_P2;PMS_P1;PMS_P2;Temp;Humidity;BMP_temperature;BMP_pressure;BME280_temperature;BME280_humidity;BME280_pressure;Samples;Min_cycle;Max_cycle;Signal;HPM_P1;HPM_P2
2023/04/03 00:02:46;;;;;;;2.83;1.00;;;;;;;24.56;36.56;99370.34;1856556;76;28240;-44
2023/04/03 00:05:35;;;;;;;0.80;0.80;;;;;;;24.56;36.61;99365.69;1851724;76;28267;-44
2023/04/03 00:08:23;;;;;;;1.22;1.12;;;;;;;24.57;36.59;99366.52;1866319;76;28134;-46
2023/04/03 00:11:12;;;;;;;0.75;0.75;;;;;;;24.57;36.59;99365.16;1863079;76;28319;-46
2023/04/03 00:14:00;;;;;;;1.00;0.90;;;;;;;24.57;36.61;99367.36;1867497;76;28181;-45
2023/04/03 00:16:48;;;;;;;2.00;0.90;;;;;;;24.57;36.59;99364.62;1867303;76;28085;-46
2023/04/03 00:19:37;;;;;;;1.20;1.20;;;;;;;24.58;36.57;99362.14;1864026;76;28153;-47
2023/04/03 00:22:26;;;;;;;1.50;0.80;;;;;;;24.57;36.57;99357.75;1865199;76;28281;-47
2023/04/03 00:25:15;;;;;;;2.22;1.07;;;;;;;24.59;36.58;99354.20;1867396;76;28246;-48
2023/04/03 00:28:05;;;;;;;1.82;0.93;;;;;;;24.58;36.59;99361.30;1867272;76;28179;-44
2023/04/03 00:30:53;;;;;;;1.05;0.95;;;;;;;24.57;36.53;99363.24;1845919;77;28328;-46
2023/04/03 00:33:42;;;;;;;1.40;0.90;;;;;;;24.59;36.55;99352.84;1857789;76;28243;-46
2023/04/03 00:36:31;;;;;;;0.88;0.88;;;;;;;24.59;36.56;99354.74;1856832;76;31042;-47
2023/04/03 00:39:20;;;;;;;1.25;1.00;;;;;;;24.59;36.56;99348.72;1856135;76;28211;-44
2023/04/03 00:42:08;;;;;;;1.20;1.10;;;;;;;24.58;36.54;99348.41;1861753;76;28226;-45
2023/04/03 00:45:00;;;;;;;1.10;1.00;;;;;;;24.59;36.56;99347.34;1867293;76;28284;-45
2023/04/03 00:47:49;;;;;;;1.45;0.90;;;;;;;24.59;36.55;99344.59;1867303;76;28269;-45
2023/04/03 00:50:41;;;;;;;1.90;1.17;;;;;;;24.60;36.51;99342.12;1846048;77;28217;-45
2023/04/03 00:53:38;;;;;;;1.05;1.00;;;;;;;24.61;36.48;99345.17;1861169;76;28095;-47
2023/04/03 00:56:29;;;;;;;1.27;0.90;;;;;;;24.56;36.52;99342.34;1856883;76;28211;-44
2023/04/03 00:59:26;;;;;;;0.80;0.80;;;;;;;24.56;36.56;99347.83;1856527;76;28132;-47
2023/04/03 01:02:14;;;;;;;1.57;0.80;;;;;;;24.57;36.57;99344.55;1874644;76;28119;-47
2023/04/03 01:05:03;;;;;;;3.70;1.10;;;;;;;24.57;36.57;99351.42;1865075;76;28123;-45
2023/04/03 01:07:53;;;;;;;2.27;1.02;;;;;;;24.58;36.52;99345.66;1859243;76;28109;-48
2023/04/03 01:10:41;;;;;;;1.40;0.80;;;;;;;24.59;36.52;99343.76;1888097;74;28165;-45
2023/04/03 01:13:33;;;;;;;1.70;1.00;;;;;;;24.58;36.52;99337.42;1861801;76;28090;-47
2023/04/03 01:16:22;;;;;;;0.70;0.60;;;;;;;24.60;36.52;99339.91;1877640;76;28109;-49
2023/04/03 01:19:13;;;;;;;1.77;1.00;;;;;;;24.59;36.52;99341.02;1858243;76;28090;-45
2023/04/03 01:22:08;;;;;;;0.70;0.60;;;;;;;24.59;36.54;99340.48;1856212;76;28191;-46
2023/04/03 01:24:56;;;;;;;0.70;0.70;;;;;;;24.60;36.54;99333.05;1877710;76;28065;-45
2023/04/03 01:27:45;;;;;;;2.95;0.60;;;;;;;24.57;36.52;99328.91;1859490;76;28186;-44
2023/04/03 01:30:37;;;;;;;1.80;0.90;;;;;;;24.57;36.54;99327.55;1858689;76;28178;-46
2023/04/03 01:33:26;;;;;;;1.27;0.90;;;;;;;24.58;36.54;99326.44;1848760;76;28337;-45
2023/04/03 01:36:29;;;;;;;0.80;0.80;;;;;;;24.57;36.53;99318.47;1867459;76;28097;-47
2023/04/03 01:39:19;;;;;;;1.20;0.90;;;;;;;24.59;36.49;99322.63;1866988;76;28172;-45
2023/04/03 01:42:07;;;;;;;0.90;0.60;;;;;;;24.57;36.52;99317.09;1862266;76;28203;-46
2023/04/03 01:44:58;;;;;;;1.00;0.70;;;;;;;24.58;36.52;99314.62;1858536;76;28242;-45
2023/04/03 01:47:46;;;;;;;0.98;0.90;;;;;;;24.57;36.51;99315.72;1846557;77;28142;-49
2023/04/03 01:50:35;;;;;;;0.60;0.60;;;;;;;24.57;36.54;99327.55;1844806;77;28687;-45
2023/04/03 01:53:24;;;;;;;0.88;0.88;;;;;;;24.58;36.52;99323.69;1842550;77;28107;-44
2023/04/03 01:56:12;;;;;;;0.62;0.60;;;;;;;24.61;36.47;99327.85;1846579;77;28256;-46
2023/04/03 01:59:01;;;;;;;0.70;0.70;;;;;;;24.61;36.47;99323.73;1846584;77;28166;-45
2023/04/03 02:01:50;;;;;;;1.75;0.62;;;;;;;24.60;36.48;99319.31;1844610;77;28354;-48
2023/04/03 02:04:39;;;;;;;0.80;0.60;;;;;;;24.61;36.47;99315.50;1837078;76;28663;-50
2023/04/03 02:07:27;;;;;;;0.78;0.72;;;;;;;24.61;36.46;99309.47;1843704;76;28269;-44
2023/04/03 02:10:16;;;;;;;1.90;0.70;;;;;;;24.60;36.46;99307.80;1847173;76;28242;-45
2023/04/03 02:13:04;;;;;;;0.80;0.80;;;;;;;24.58;36.47;99298.14;1850991;76;28361;-45
2023/04/03 02:15:53;;;;;;;0.90;0.80;;;;;;;24.60;36.42;99298.17;1848473;76;28221;-45
2023/04/03 02:18:41;;;;;;;0.90;0.90;;;;;;;24.59;36.44;99310.80;1867635;76;28112;-44
2023/04/03 02:21:30;;;;;;;1.00;0.70;;;;;;;24.57;36.48;99295.96;1846590;76;28154;-45
2023/04/03 02:24:19;;;;;;;0.55;0.55;;;;;;;24.57;36.44;99306.11;1852700;76;28531;-47
2023/04/03 02:27:07;;;;;;;0.60;0.60;;;;;;;24.59;36.41;99313.55;1847517;76;28166;-48
2023/04/03 02:29:56;;;;;;;0.50;0.50;;;;;;;24.60;36.37;99306.42;1847601;76;28190;-43
2023/04/03 02:32:45;;;;;;;3.42;0.65;;;;;;;24.59;36.37;99304.77;1848449;76;28161;-46
2023/04/03 02:35:33;;;;;;;1.30;0.65;;;;;;;24.60;36.37;99306.95;1854788;76;28020;-46
2023/04/03 02:38:23;;;;;;;0.53;0.53;;;;;;;24.60;36.35;99298.17;1859553;76;28156;-44
2023/04/03 02:41:13;;;;;;;0.50;0.50;;;;;;;24.60;36.35;99295.43;1857993;76;28103;-46
2023/04/03 02:44:03;;;;;;;0.93;0.60;;;;;;;24.59;36.34;99297.91;1856380;76;28650;-45
2023/04/03 02:46:52;;;;;;;0.75;0.68;;;;;;;24.57;36.38;99301.45;1865842;75;28255;-44
2023/04/03 02:49:41;;;;;;;0.50;0.40;;;;;;;24.59;36.37;99297.91;1859526;75;28126;-45
2023/04/03 02:52:29;;;;;;;0.50;0.50;;;;;;;24.60;36.35;99294.06;1862540;75;28275;-47
2023/04/03 02:55:19;;;;;;;1.20;0.70;;;;;;;24.59;36.36;99299.81;1864821;75;28196;-48
2023/04/03 02:58:09;;;;;;;1.00;0.60;;;;;;;24.57;36.33;99291.84;1865499;75;28185;-46
2023/04/03 03:00:58;;;;;;;0.53;0.53;;;;;;;24.56;36.39;99286.58;1862600;75;28056;-46
2023/04/03 03:03:46;;;;;;;1.37;0.75;;;;;;;24.56;36.37;99294.28;1859993;75;28184;-47
2023/04/03 03:06:34;;;;;;;1.07;0.50;;;;;;;24.57;36.32;99291.00;1869954;75;28194;-45
2023/04/03 03:09:23;;;;;;;1.32;0.55;;;;;;;24.55;36.37;99282.19;1856677;76;28331;-45
2023/04/03 03:12:12;;;;;;;0.42;0.42;;;;;;;24.58;36.29;99294.86;1873088;75;28199;-45
2023/04/03 03:15:00;;;;;;;0.47;0.47;;;;;;;24.57;36.27;99290.47;1800285;78;28327;-47
2023/04/03 03:17:49;;;;;;;0.57;0.57;;;;;;;24.58;36.26;99283.87;1794501;79;28327;-45
2023/04/03 03:20:37;;;;;;;1.52;0.60;;;;;;;24.53;36.25;99274.72;1792863;78;28398;-45
2023/04/03 03:23:28;;;;;;;0.30;0.30;;;;;;;24.61;36.23;99282.54;1840041;77;28206;-47
2023/04/03 03:26:16;;;;;;;0.57;0.47;;;;;;;24.60;36.18;99282.23;1803893;78;28383;-44
2023/04/03 03:29:04;;;;;;;0.40;0.40;;;;;;;24.57;36.22;99279.48;1824261;78;28291;-48
2023/04/03 03:31:53;;;;;;;0.60;0.60;;;;;;;24.58;36.18;99277.55;1803877;78;38604;-45
2023/04/03 03:34:42;;;;;;;0.40;0.40;;;;;;;24.57;36.19;99285.51;1820179;78;28254;-48
2023/04/03 03:37:30;;;;;;;0.47;0.47;;;;;;;24.56;36.22;99275.06;1793194;79;28341;-45
2023/04/03 03:40:18;;;;;;;1.40;0.60;;;;;;;24.56;36.22;99281.92;1825420;77;28179;-45
2023/04/03 03:43:07;;;;;;;2.50;0.80;;;;;;;24.56;36.19;99275.59;1821821;77;35276;-46
2023/04/03 03:45:56;;;;;;;0.45;0.45;;;;;;;24.57;36.20;99280.02;1802931;78;28412;-45
2023/04/03 03:48:45;;;;;;;0.35;0.35;;;;;;;24.57;36.17;99284.13;1845784;77;28210;-44
2023/04/03 03:51:34;;;;;;;1.12;0.47;;;;;;;24.57;36.17;99279.48;1808502;78;28305;-46
2023/04/03 03:54:23;;;;;;;0.68;0.42;;;;;;;24.56;36.14;99282.46;1862425;75;28102;-46
2023/04/03 03:57:12;;;;;;;0.30;0.30;;;;;;;24.55;36.17;99282.19;1862739;75;28130;-46
2023/04/03 04:00:01;;;;;;;0.20;0.20;;;;;;;24.56;36.10;99284.67;1866620;75;28204;-46
2023/04/03 04:02:51;;;;;;;0.40;0.40;;;;;;;24.54;36.10;99288.22;1791600;78;28202;-46
2023/04/03 04:05:41;;;;;;;0.50;0.50;;;;;;;24.50;36.05;99277.45;1797852;78;28336;-49
2023/04/03 04:08:29;;;;;;;0.45;0.45;;;;;;;24.53;36.04;99283.80;1806769;78;28223;-46
2023/04/03 04:11:19;;;;;;;0.57;0.50;;;;;;;24.51;36.14;99279.64;1796319;78;28187;-44
2023/04/03 04:14:12;;;;;;;0.40;0.40;;;;;;;24.52;36.08;99278.03;1799155;78;28325;-45
2023/04/03 04:16:59;;;;;;;0.40;0.40;;;;;;;24.52;36.08;99281.31;1809887;78;28314;-44
2023/04/03 04:19:48;;;;;;;0.42;0.42;;;;;;;24.51;36.11;99285.97;1826945;78;28221;-48
2023/04/03 04:22:37;;;;;;;0.47;0.47;;;;;;;24.51;36.10;99281.84;1816625;78;28403;-45
2023/04/03 04:25:27;;;;;;;1.07;0.42;;;;;;;24.52;36.04;99282.69;1809655;78;28306;-47
2023/04/03 04:28:16;;;;;;;0.40;0.37;;;;;;;24.51;36.08;99284.59;1826965;78;28274;-45
2023/04/03 04:31:05;;;;;;;1.23;0.47;;;;;;;24.52;36.05;99283.52;1812845;78;28264;-46
2023/04/03 04:33:55;;;;;;;1.02;0.40;;;;;;;24.53;36.01;99278.30;1809122;78;28338;-47
2023/04/03 04:36:44;;;;;;;0.30;0.30;;;;;;;24.53;36.00;99277.46;1862562;75;28242;-45
2023/04/03 04:39:33;;;;;;;1.60;0.50;;;;;;;24.51;36.00;99283.22;1862694;75;28184;-45
2023/04/03 04:42:22;;;;;;;0.90;0.33;;;;;;;24.53;36.00;99281.58;1865204;75;28210;-47
2023/04/03 04:45:11;;;;;;;0.45;0.40;;;;;;;24.51;36.02;99274.98;1780775;80;28328;-46
2023/04/03 04:48:01;;;;;;;1.42;0.47;;;;;;;24.52;35.98;99282.69;1807009;78;28532;-46
2023/04/03 04:50:50;;;;;;;0.68;0.68;;;;;;;24.48;36.00;99282.34;1851805;76;28215;-47
2023/04/03 04:53:39;;;;;;;0.23;0.23;;;;;;;24.49;36.01;99275.78;1881407;76;28177;-43
2023/04/03 04:56:28;;;;;;;0.47;0.47;;;;;;;24.50;35.99;99275.25;1849371;77;28283;-45
2023/04/03 04:59:17;;;;;;;1.30;0.42;;;;;;;24.52;35.99;99266.20;1877683;76;29138;-43
2023/04/03 05:02:06;;;;;;;1.60;0.40;;;;;;;24.50;35.99;99263.73;1880225;76;28138;-44
2023/04/03 05:04:54;;;;;;;0.90;0.40;;;;;;;24.48;35.98;99259.56;1873737;76;28127;-46
2023/04/03 05:07:44;;;;;;;1.60;0.50;;;;;;;24.48;36.00;99262.31;1861654;76;28139;-44
2023/04/03 05:10:33;;;;;;;0.25;0.25;;;;;;;24.50;35.98;99265.63;1859691;76;28135;-47
2023/04/03 05:13:23;;;;;;;0.40;0.37;;;;;;;24.49;35.99;99262.05;1858863;76;28189;-46
2023/04/03 05:16:11;;;;;;;0.30;0.30;;;;;;;24.49;35.97;99264.80;1866019;76;28155;-47
2023/04/03 05:19:00;;;;;;;0.93;0.45;;;;;;;24.49;35.97;99263.95;1860008;76;28193;-45
2023/04/03 05:21:49;;;;;;;0.50;0.50;;;;;;;24.49;35.78;99283.18;1859974;76;28131;-45
2023/04/03 05:24:38;;;;;;;0.50;0.42;;;;;;;24.45;35.95;99270.52;1859795;76;28269;-43
2023/04/03 05:27:28;;;;;;;1.07;0.40;;;;;;;24.45;36.21;99271.05;1867153;75;28112;-45
2023/04/03 05:30:18;;;;;;;0.47;0.47;;;;;;;24.42;36.32;99269.63;1870822;75;28185;-45
2023/04/03 05:33:08;;;;;;;0.70;0.55;;;;;;;24.44;36.36;99275.70;1871038;76;28261;-46
2023/04/03 05:36:04;;;;;;;0.50;0.50;;;;;;;24.44;36.06;99267.46;1870656;76;28236;-47
2023/04/03 05:38:56;;;;;;;0.55;0.55;;;;;;;24.46;36.17;99268.57;1865906;76;28118;-47
2023/04/03 05:41:44;;;;;;;0.50;0.50;;;;;;;24.43;36.29;99276.80;1860877;76;28153;-44
2023/04/03 05:44:33;;;;;;;0.50;0.50;;;;;;;24.42;36.34;99275.13;1859731;76;28110;-46
2023/04/03 05:47:23;;;;;;;1.20;0.33;;;;;;;24.42;36.29;99275.66;1860031;76;28334;-45
2023/04/03 05:50:12;;;;;;;0.30;0.30;;;;;;;24.42;36.30;99275.13;1848453;75;28183;-45
2023/04/03 05:53:03;;;;;;;0.35;0.35;;;;;;;24.40;36.29;99266.84;1858284;76;28268;-46
2023/04/03 05:55:53;;;;;;;0.50;0.37;;;;;;;24.39;36.31;99275.62;1850765;77;28125;-44
2023/04/03 05:58:42;;;;;;;1.37;0.47;;;;;;;24.38;36.34;99275.34;1836524;77;28193;-49
2023/04/03 06:01:31;;;;;;;0.70;0.47;;;;;;;24.35;36.29;99277.21;1852109;76;28134;-45
2023/04/03 06:04:20;;;;;;;0.40;0.40;;;;;;;24.32;36.40;99279.08;1824909;77;28170;-45
2023/04/03 06:07:12;;;;;;;0.35;0.35;;;;;;;24.33;36.40;99275.80;1857517;76;28177;-45
2023/04/03 06:10:01;;;;;;;0.60;0.60;;;;;;;24.33;36.44;99276.64;1856388;76;28586;-45
2023/04/03 06:12:51;;;;;;;1.10;0.70;;;;;;;24.31;36.34;99283.45;1854445;76;28173;-46
2023/04/03 06:15:40;;;;;;;1.20;0.50;;;;;;;24.34;36.15;99283.77;1830613;77;28181;-46
2023/04/03 06:18:30;;;;;;;0.53;0.53;;;;;;;24.35;36.19;99285.45;1818049;77;28284;-46
2023/04/03 06:21:19;;;;;;;2.15;1.50;;;;;;;24.35;36.11;99281.33;1842623;77;28136;-50
2023/04/03 06:24:09;;;;;;;1.10;1.10;;;;;;;24.33;36.22;99296.39;1838656;77;28225;-44
2023/04/03 06:26:58;;;;;;;1.40;1.30;;;;;;;24.29;36.00;99297.44;1828432;77;28185;-45
2023/04/03 06:29:47;;;;;;;1.55;1.45;;;;;;;24.29;35.57;99295.23;1846485;77;28149;-46
2023/04/03 06:32:36;;;;;;;1.17;1.17;;;;;;;24.23;35.04;99294.31;1829514;75;28775;-48
2023/04/03 06:35:25;;;;;;;1.20;1.10;;;;;;;24.17;34.76;99288.99;1851014;74;28700;-49
2023/04/03 06:38:13;;;;;;;1.00;1.00;;;;;;;24.10;34.48;99280.09;1827848;77;28273;-48
2023/04/03 06:41:02;;;;;;;4.47;1.40;;;;;;;24.22;34.22;99291.83;1823338;78;28684;-47
2023/04/03 06:43:50;;;;;;;1.10;1.10;;;;;;;24.22;34.48;99288.55;1840301;77;28228;-46
2023/04/03 06:46:39;;;;;;;1.77;1.40;;;;;;;24.21;34.75;99292.36;1835904;77;28173;-47
2023/04/03 06:49:28;;;;;;;2.20;1.60;;;;;;;24.20;35.03;99289.31;1830586;77;28266;-43
2023/04/03 06:52:17;;;;;;;1.85;1.57;;;;;;;24.23;35.38;99291.56;1856409;76;28211;-45
2023/04/03 06:55:07;;;;;;;1.20;1.15;;;;;;;24.25;35.55;99288.02;1856500;76;28668;-46
2023/04/03 06:57:55;;;;;;;1.60;1.50;;;;;;;24.30;35.79;99297.72;1857902;76;28185;-45
2023/04/03 07:00:44;;;;;;;1.40;1.30;;;;;;;24.29;35.96;99300.19;1855983;76;28272;-46
2023/04/03 07:03:32;;;;;;;2.15;1.42;;;;;;;24.29;35.98;99294.70;1859008;75;28247;-46
2023/04/03 07:06:21;;;;;;;1.33;1.13;;;;;;;24.29;36.12;99296.07;1853501;76;28772;-46
2023/04/03 07:09:11;;;;;;;1.25;1.20;;;;;;;24.26;36.37;99297.94;1862386;76;28091;-46
2023/04/03 07:11:59;;;;;;;1.45;1.10;;;;;;;24.20;36.55;99294.80;1835925;77;28244;-43
2023/04/03 07:14:48;;;;;;;1.20;1.10;;;;;;;24.20;36.68;99296.17;1848956;76;28696;-46
2023/04/03 07:17:37;;;;;;;1.40;1.30;;;;;;;24.24;36.48;99291.03;1839975;77;28205;-46
2023/04/03 07:20:26;;;;;;;1.30;1.17;;;;;;;24.20;36.44;99296.73;1850296;75;28271;-45
2023/04/03 07:23:14;;;;;;;1.35;1.25;;;;;;;24.16;36.47;99298.30;1843657;75;28223;-46
2023/04/03 07:26:03;;;;;;;1.40;1.30;;;;;;;24.19;36.62;99293.69;1849327;75;28182;-44
2023/04/03 07:28:52;;;;;;;1.35;1.25;;;;;;;24.21;36.54;99291.52;1850755;77;29173;-44
2023/04/03 07:31:41;;;;;;;1.82;1.35;;;;;;;24.26;36.56;99294.35;1849964;74;31693;-46
2023/04/03 07:34:30;;;;;;;1.60;1.30;;;;;;;24.28;36.48;99299.05;1873753;74;28241;-47
2023/04/03 07:37:18;;;;;;;1.80;1.30;;;;;;;24.28;36.42;99304.00;1855729;76;28146;-46
2023/04/03 07:40:08;;;;;;;1.02;1.02;;;;;;;24.27;36.51;99300.14;1838279;77;28159;-48
2023/04/03 07:42:56;;;;;;;2.13;1.10;;;;;;;24.27;36.46;99294.09;1839861;76;28175;-47
2023/04/03 07:45:46;;;;;;;1.07;0.98;;;;;;;24.30;36.46;99296.88;1858366;76;31073;-46
2023/04/03 07:48:35;;;;;;;1.42;0.98;;;;;;;24.31;36.37;99284.30;1843004;77;28116;-49
2023/04/03 07:51:24;;;;;;;0.93;0.93;;;;;;;24.31;36.39;99288.95;1862681;76;28197;-50
2023/04/03 07:54:12;;;;;;;1.15;1.05;;;;;;;24.30;36.40;99294.97;1836457;77;32038;-47
2023/04/03 07:57:01;;;;;;;1.02;1.02;;;;;;;24.30;36.35;99290.86;1836279;77;28691;-48
2023/04/03 07:59:49;;;;;;;1.15;1.15;;;;;;;24.32;36.30;99287.31;1852165;76;28625;-46
2023/04/03 08:02:37;;;;;;;1.30;1.07;;;;;;;24.29;36.38;99293.86;1859605;76;28217;-44
2023/04/03 08:05:26;;;;;;;1.30;0.98;;;;;;;24.27;36.46;99290.54;1846457;76;28246;-48
2023/04/03 08:08:17;;;;;;;1.30;0.70;;;;;;;24.31;36.30;99289.78;1866953;76;28077;-46
2023/04/03 08:11:06;;;;;;;1.10;1.00;;;;;;;24.30;36.31;99299.09;1872689;76;28127;-45
2023/04/03 08:13:55;;;;;;;1.62;1.15;;;;;;;24.32;36.30;99292.00;1847603;76;28138;-47
2023/04/03 08:16:46;;;;;;;0.80;0.80;;;;;;;24.32;36.27;99296.11;1846342;76;28218;-50
2023/04/03 08:19:33;;;;;;;1.05;1.00;;;;;;;24.29;36.27;99293.33;1854481;76;28071;-49
2023/04/03 08:22:22;;;;;;;0.98;0.98;;;;;;;24.29;36.26;99293.33;1848587;76;28199;-44
2023/04/03 08:25:11;;;;;;;1.02;0.98;;;;;;;24.28;36.34;99290.81;1842024;76;28236;-44
2023/04/03 08:27:59;;;;;;;1.22;1.12;;;;;;;24.28;36.31;99302.63;1846625;77;28123;-44
2023/04/03 08:30:48;;;;;;;0.90;0.90;;;;;;;24.28;36.31;99302.63;1841579;77;28135;-48
2023/04/03 08:33:36;;;;;;;0.90;0.90;;;;;;;24.31;36.30;99304.89;1842818;75;28188;-45
2023/04/03 08:36:27;;;;;;;0.70;0.70;;;;;;;24.31;36.34;99306.25;1832571;75;28098;-45
2023/04/03 08:39:17;;;;;;;0.95;0.95;;;;;;;24.31;36.27;99305.42;1862301;76;28100;-46
2023/04/03 08:42:09;;;;;;;0.98;0.95;;;;;;;24.31;36.27;99305.42;1837497;76;28299;-47
2023/04/03 08:45:03;;;;;;;1.20;1.00;;;;;;;24.26;36.67;99308.91;1846811;77;28185;-44
2023/04/03 08:47:56;;;;;;;1.37;0.90;;;;;;;24.24;36.95;99301.47;1858138;76;28293;-43
2023/04/03 08:50:53;;;;;;;1.00;0.90;;;;;;;24.23;36.68;99299.80;1825510;77;28189;-47
2023/04/03 08:53:45;;;;;;;0.93;0.90;;;;;;;24.23;36.77;99298.42;1867136;75;28142;-47
2023/04/03 08:56:35;;;;;;;1.30;0.98;;;;;;;24.23;36.81;99294.84;1865907;75;28095;-46
2023/04/03 08:59:27;;;;;;;1.40;0.90;;;;;;;24.20;36.82;99293.42;1862901;75;28137;-44
2023/04/03 09:02:18;;;;;;;0.90;0.90;;;;;;;24.18;36.83;99292.05;1880643;75;28086;-43
2023/04/03 09:05:09;;;;;;;1.55;0.80;;;;;;;24.18;36.85;99292.84;1863687;75;28168;-48
2023/04/03 09:08:19;;;;;;;0.90;0.90;;;;;;;24.18;36.85;99285.98;1866758;75;28059;-48
2023/04/03 09:11:13;;;;;;;0.73;0.73;;;;;;;24.22;36.72;99290.45;1871199;75;28187;-46
2023/04/03 09:14:19;;;;;;;0.65;0.62;;;;;;;24.22;36.75;99289.08;1873912;75;28231;-48
2023/04/03 09:17:32;;;;;;;0.90;0.75;;;;;;;24.22;36.72;99283.06;1714873;83;28473;-49
2023/04/03 09:20:42;;;;;;;1.70;0.93;;;;;;;24.24;36.65;99274.03;1874150;76;28073;-44
2023/04/03 09:23:36;;;;;;;0.80;0.70;;;;;;;24.22;36.66;99274.82;1857037;76;28439;-46
2023/04/03 09:26:37;;;;;;;0.78;0.78;;;;;;;24.23;36.61;99270.98;1856932;76;28212;-48
2023/04/03 09:29:26;;;;;;;0.82;0.82;;;;;;;24.25;36.56;99266.06;1859051;76;28149;-46
2023/04/03 09:32:24;;;;;;;0.50;0.50;;;;;;;24.28;36.57;99267.48;1859723;76;28158;-48
2023/04/03 09:35:18;;;;;;;0.85;0.85;;;;;;;24.27;36.51;99273.50;1868459;76;28184;-45
2023/04/03 09:38:15;;;;;;;0.60;0.60;;;;;;;24.30;36.46;99259.28;1867714;76;28129;-48
2023/04/03 09:41:10;;;;;;;0.90;0.90;;;;;;;24.31;36.41;99265.08;1867669;76;28055;-46
2023/04/03 09:43:58;;;;;;;0.90;0.90;;;;;;;24.30;36.38;99268.05;1855188;76;38509;-45
2023/04/03 09:46:46;;;;;;;0.80;0.80;;;;;;;24.31;36.33;99260.96;1859336;76;28051;-46
2023/04/03 09:49:35;;;;;;;0.77;0.77;;;;;;;24.32;36.27;99255.74;1857040;76;28166;-45
2023/04/03 09:52:28;;;;;;;0.70;0.70;;;;;;;24.28;36.36;99254.59;1877099;76;28213;-47
2023/04/03 09:55:26;;;;;;;0.60;0.50;;;;;;;24.27;36.44;99249.36;1854196;74;28125;-47
2023/04/03 09:58:25;;;;;;;1.00;0.90;;;;;;;24.27;36.39;99257.59;1858401;76;28159;-44
2023/04/03 10:01:26;;;;;;;1.00;0.60;;;;;;;24.29;36.28;99254.06;1872427;76;28236;-45
2023/04/03 10:04:20;;;;;;;2.40;0.98;;;;;;;24.28;36.26;99251.84;1878038;76;28187;-45
2023/04/03 10:07:30;;;;;;;0.60;0.60;;;;;;;24.24;36.30;99246.58;1873696;76;28231;-46
2023/04/03 10:10:25;;;;;;;0.70;0.70;;;;;;;24.22;36.44;99239.14;1869950;76;28222;-46
2023/04/03 10:13:18;;;;;;;1.32;0.72;;;;;;;24.23;36.42;99236.67;1866095;76;28103;-46
2023/04/03 10:16:14;;;;;;;0.65;0.65;;;;;;;24.22;36.61;99240.52;1846112;77;28166;-43
2023/04/03 10:19:14;;;;;;;0.70;0.70;;;;;;;24.22;36.81;99231.44;1858103;76;28141;-44
2023/04/03 10:22:05;;;;;;;0.60;0.60;;;;;;;24.23;36.39;99233.92;1852424;74;28153;-47
2023/04/03 10:25:02;;;;;;;0.60;0.60;;;;;;;24.19;36.53;99228.66;1863338;74;28457;-46
2023/04/03 10:28:10;;;;;;;0.90;0.70;;;;;;;24.19;36.54;99227.28;1851496;76;28199;-45
2023/04/03 10:31:14;;;;;;;0.62;0.62;;;;;;;24.18;36.53;99224.23;1846395;77;28196;-47
2023/04/03 10:34:11;;;;;;;0.47;0.47;;;;;;;24.18;36.54;99220.12;1863385;76;28039;-48
2023/04/03 10:37:24;;;;;;;0.80;0.80;;;;;;;24.16;36.54;99222.28;1866205;76;28217;-48
2023/04/03 10:40:13;;;;;;;0.53;0.53;;;;;;;24.18;36.42;99229.72;1858732;76;28045;-44
2023/04/03 10:43:05;;;;;;;0.70;0.70;;;;;;;24.16;36.30;99211.84;1871390;76;28298;-45
2023/04/03 10:45:56;;;;;;;0.70;0.60;;;;;;;24.18;36.50;99209.70;1846977;76;28128;-46
2023/04/03 10:48:56;;;;;;;0.60;0.60;;;;;;;24.17;36.42;99212.98;1860441;76;28188;-45
2023/04/03 10:51:49;;;;;;;0.60;0.60;;;;;;;24.15;36.44;99208.83;1860702;76;28103;-46
2023/04/03 10:54:43;;;;;;;0.78;0.78;;;;;;;24.15;36.40;99194.58;1859443;76;28245;-49
2023/04/03 10:57:32;;;;;;;0.60;0.60;;;;;;;24.10;36.70;99204.09;1848636;77;28418;-48
2023/04/03 11:00:38;;;;;;;0.50;0.50;;;;;;;24.11;36.60;99189.84;1856615;77;28115;-46
2023/04/03 11:03:30;;;;;;;0.70;0.53;;;;;;;24.06;36.41;99178.25;1825974;78;28135;-45
2023/04/03 11:06:23;;;;;;;0.53;0.53;;;;;;;24.12;36.49;99186.83;1837365;77;28235;-50
2023/04/03 11:09:33;;;;;;;0.50;0.50;;;;;;;24.12;36.36;99184.09;1846565;77;28224;-48
2023/04/03 11:12:33;;;;;;;0.65;0.65;;;;;;;24.11;35.95;99178.30;1839923;76;28138;-47
2023/04/03 11:15:25;;;;;;;0.40;0.40;;;;;;;24.15;36.13;99168.50;1820834;78;28117;-48
2023/04/03 11:18:22;;;;;;;0.53;0.53;;;;;;;24.13;36.33;99161.06;1822262;77;28183;-49
2023/04/03 11:21:19;;;;;;;0.42;0.42;;;;;;;24.12;36.24;99151.69;1852773;76;28060;-47
2023/04/03 11:24:11;;;;;;;0.70;0.60;;;;;;;24.12;36.31;99148.95;1843382;77;34999;-47
2023/04/03 11:27:04;;;;;;;0.50;0.50;;;;;;;24.13;36.27;99152.83;1858603;76;28150;-48
2023/04/03 11:29:54;;;;;;;0.55;0.55;;;;;;;24.10;36.29;99140.98;1847095;77;28061;-46
2023/04/03 11:32:51;;;;;;;0.50;0.50;;;;;;;24.10;36.38;99146.47;1824802;78;28166;-48
2023/04/03 11:35:46;;;;;;;0.90;0.50;;;;;;;24.12;36.19;99138.81;1841577;77;28101;-47
2023/04/03 11:38:40;;;;;;;0.55;0.55;;;;;;;24.09;36.35;99131.07;1837141;77;28065;-47
2023/04/03 11:41:31;;;;;;;0.50;0.50;;;;;;;24.10;36.49;99128.63;1836401;77;28099;-44
2023/04/03 11:44:40;;;;;;;0.50;0.50;;;;;;;24.10;36.53;99123.67;1835844;77;28227;-47
2023/04/03 11:47:52;;;;;;;0.55;0.55;;;;;;;24.10;36.44;99110.80;1833242;77;28082;-51
2023/04/03 11:50:43;;;;;;;1.60;0.60;;;;;;;24.10;36.37;99122.31;1856990;77;28111;-45
2023/04/03 11:53:40;;;;;;;0.60;0.60;;;;;;;24.07;36.51;99122.80;1841725;77;28176;-46
2023/04/03 11:56:30;;;;;;;0.57;0.57;;;;;;;24.07;36.47;99115.41;1842298;76;28298;-48
2023/04/03 11:59:23;;;;;;;1.00;0.40;;;;;;;24.08;36.54;99106.64;1852375;76;28084;-46
2023/04/03 12:02:31;;;;;;;0.60;0.60;;;;;;;24.08;36.54;99103.36;1875220;76;28591;-48
2023/04/03 12:05:31;;;;;;;0.40;0.40;;;;;;;24.01;36.46;99087.59;1868945;76;28067;-48
2023/04/03 12:08:43;;;;;;;0.80;0.60;;;;;;;24.09;36.46;99100.05;1858505;76;28134;-47
2023/04/03 12:11:34;;;;;;;0.70;0.70;;;;;;;24.09;36.36;99087.70;1834390;77;28180;-50
2023/04/03 12:14:27;;;;;;;0.50;0.50;;;;;;;24.09;36.21;99080.31;1846270;77;28940;-48
2023/04/03 12:17:22;;;;;;;0.50;0.50;;;;;;;24.12;36.06;99080.34;1877320;76;28145;-49
2023/04/03 12:20:44;;;;;;;0.45;0.45;;;;;;;24.13;36.06;99072.41;1856680;76;28207;-47
2023/04/03 12:23:36;;;;;;;0.50;0.50;;;;;;;24.14;35.91;99065.29;1795412;79;28454;-49
2023/04/03 12:26:30;;;;;;;0.40;0.40;;;;;;;24.10;36.04;99063.31;1861392;76;28207;-46
2023/04/03 12:29:33;;;;;;;0.47;0.47;;;;;;;24.13;36.27;99058.16;1859956;76;28125;-49
2023/04/03 12:32:42;;;;;;;1.00;0.42;;;;;;;24.12;36.18;99055.11;1849423;76;28266;-45
2023/04/03 12:35:37;;;;;;;0.50;0.50;;;;;;;24.10;36.09;99048.22;1863187;76;28192;-48
2023/04/03 12:38:51;;;;;;;0.47;0.47;;;;;;;24.10;36.10;99039.45;1867801;76;28292;-48
2023/04/03 12:41:51;;;;;;;0.50;0.50;;;;;;;24.11;35.86;99049.33;1867623;76;29205;-48
2023/04/03 12:44:42;;;;;;;0.42;0.42;;;;;;;24.11;36.01;99038.91;1867603;76;28180;-49
2023/04/03 12:47:35;;;;;;;0.40;0.40;;;;;;;24.13;35.89;99040.32;1832672;77;28191;-46
2023/04/03 12:50:30;;;;;;;0.47;0.47;;;;;;;24.15;35.84;99044.17;1794317;78;28460;-46
2023/04/03 12:53:24;;;;;;;0.45;0.45;;;;;;;24.16;35.88;99022.48;1827178;77;28131;-47
2023/04/03 12:56:30;;;;;;;0.40;0.40;;;;;;;24.18;35.83;99020.34;1830378;77;28218;-45
2023/04/03 12:59:27;;;;;;;0.68;0.68;;;;;;;24.17;35.91;99017.30;1858762;76;28142;-47
2023/04/03 13:02:31;;;;;;;0.40;0.40;;;;;;;24.18;35.72;99004.67;1841363;76;28133;-47
2023/04/03 13:05:22;;;;;;;0.80;0.45;;;;;;;24.09;35.66;98988.39;1879118;74;28059;-48
2023/04/03 13:08:15;;;;;;;0.50;0.50;;;;;;;24.17;35.60;99006.31;1854340;76;28083;-45
2023/04/03 13:11:08;;;;;;;0.45;0.45;;;;;;;24.16;35.52;99016.45;1849852;76;28118;-47
2023/04/03 13:14:04;;;;;;;0.65;0.40;;;;;;;24.17;35.48;99020.88;1847874;76;28189;-46
2023/04/03 13:16:58;;;;;;;0.90;0.50;;;;;;;24.22;35.29;99033.30;1843715;76;28213;-45
2023/04/03 13:19:46;;;;;;;0.60;0.60;;;;;;;24.18;35.44;99033.50;1857853;76;28599;-46
2023/04/03 13:22:43;;;;;;;0.50;0.50;;;;;;;24.17;35.42;99018.67;1854242;76;28129;-46
2023/04/03 13:25:31;;;;;;;0.45;0.45;;;;;;;24.18;35.45;99025.83;1858870;76;28212;-47
2023/04/03 13:28:25;;;;;;;0.40;0.40;;;;;;;24.17;35.46;99041.45;1858527;76;28174;-49
2023/04/03 13:31:19;;;;;;;0.50;0.50;;;;;;;24.12;35.58;99038.65;1858503;76;28107;-48